sensor_id;sensor_type;location;lat;lon;timestamp;P1;durP1;ratioP1;P2;durP2;ratioP2
31526;SDS011;18136;42.236;-73.040;2023-08-08T00:02:02;20.70;;;15.88;;
31526;SDS011;18136;42.236;-73.040;2023-08-08T00:04:28;18.63;;;14.27;;
31526;SDS011;18136;42.236;-73.040;2023-08-08T00:06:54;19.88;;;13.63;;
31526;SDS011;18136;42.236;-73.040;2023-08-08T00:09:23;18.50;;;14.48;;
31526;SDS011;18136;42.236;-73.040;2023-08-08T00:11:49;15.63;;;12.82;;
31526;SDS011;18136;42.236;-73.040;2023-08-08T00:14:15;16.17;;;13.63;;
31526;SDS011;18136;42.236;-73.040;2023-08-08T00:16:41;15.13;;;12.50;;
31526;SDS011;18136;42.236;-73.040;2023-08-08T00:19:07;16.48;;;12.40;;
31526;SDS011;18136;42.236;-73.040;2023-08-08T00:21:34;16.55;;;12.98;;
31526;SDS011;18136;42.236;-73.040;2023-08-08T00:24:01;16.58;;;11.98;;
31526;SDS011;18136;42.236;-73.040;2023-08-08T00:26:27;17.38;;;12.70;;
31526;SDS011;18136;42.236;-73.040;2023-08-08T00:28:53;16.70;;;13.57;;
31526;SDS011;18136;42.236;-73.040;2023-08-08T00:31:19;17.52;;;13.38;;
31526;SDS011;18136;42.236;-73.040;2023-08-08T00:33:45;21.05;;;15.20;;
31526;SDS011;18136;42.236;-73.040;2023-08-08T00:36:11;17.55;;;13.27;;
31526;SDS011;18136;42.236;-73.040;2023-08-08T00:38:37;19.35;;;14.50;;
31526;SDS011;18136;42.236;-73.040;2023-08-08T00:41:03;15.13;;;12.68;;
31526;SDS011;18136;42.236;-73.040;2023-08-08T00:43:30;19.33;;;13.00;;
31526;SDS011;18136;42.236;-73.040;2023-08-08T00:45:59;19.27;;;12.73;;
31526;SDS011;18136;42.236;-73.040;2023-08-08T00:48:25;13.93;;;11.45;;
31526;SDS011;18136;42.236;-73.040;2023-08-08T00:50:52;14.30;;;11.57;;
31526;SDS011;18136;42.236;-73.040;2023-08-08T00:53:18;15.57;;;12.45;;
31526;SDS011;18136;42.236;-73.040;2023-08-08T00:55:45;15.65;;;12.07;;
31526;SDS011;18136;42.236;-73.040;2023-08-08T00:58:12;13.02;;;11.65;;
31526;SDS011;18136;42.236;-73.040;2023-08-08T01:00:38;18.25;;;12.02;;
31526;SDS011;18136;42.236;-73.040;2023-08-08T01:03:05;13.63;;;11.88;;
31526;SDS011;18136;42.236;-73.040;2023-08-08T01:05:33;16.25;;;11.65;;
31526;SDS011;18136;42.236;-73.040;2023-08-08T01:08:04;15.55;;;11.23;;
31526;SDS011;18136;42.236;-73.040;2023-08-08T01:10:41;14.70;;;11.50;;
31526;SDS011;18136;42.236;-73.040;2023-08-08T01:13:15;14.82;;;12.13;;
31526;SDS011;18136;42.236;-73.040;2023-08-08T01:15:48;19.52;;;12.63;;
31526;SDS011;18136;42.236;-73.040;2023-08-08T01:18:15;15.32;;;11.82;;
31526;SDS011;18136;42.236;-73.040;2023-08-08T01:20:42;15.02;;;10.65;;
31526;SDS011;18136;42.236;-73.040;2023-08-08T01:23:30;20.00;;;11.73;;
31526;SDS011;18136;42.236;-73.040;2023-08-08T01:26:20;13.02;;;11.23;;
31526;SDS011;18136;42.236;-73.040;2023-08-08T01:28:52;13.48;;;10.52;;
31526;SDS011;18136;42.236;-73.040;2023-08-08T01:31:19;13.43;;;9.55;;
31526;SDS011;18136;42.236;-73.040;2023-08-08T01:33:46;11.00;;;9.43;;
31526;SDS011;18136;42.236;-73.040;2023-08-08T01:36:20;11.77;;;9.02;;
31526;SDS011;18136;42.236;-73.040;2023-08-08T01:38:52;14.18;;;10.18;;
31526;SDS011;18136;42.236;-73.040;2023-08-08T01:41:20;14.43;;;9.75;;
31526;SDS011;18136;42.236;-73.040;2023-08-08T01:43:48;15.95;;;10.70;;
31526;SDS011;18136;42.236;-73.040;2023-08-08T01:46:15;14.63;;;10.10;;
31526;SDS011;18136;42.236;-73.040;2023-08-08T01:48:45;11.32;;;9.77;;
31526;SDS011;18136;42.236;-73.040;2023-08-08T01:51:12;12.82;;;10.20;;
31526;SDS011;18136;42.236;-73.040;2023-08-08T01:53:38;15.05;;;9.57;;
31526;SDS011;18136;42.236;-73.040;2023-08-08T01:56:04;14.45;;;9.85;;
31526;SDS011;18136;42.236;-73.040;2023-08-08T01:58:30;12.20;;;10.32;;
31526;SDS011;18136;42.236;-73.040;2023-08-08T02:00:57;13.98;;;9.82;;
31526;SDS011;18136;42.236;-73.040;2023-08-08T02:03:23;13.60;;;10.02;;
31526;SDS011;18136;42.236;-73.040;2023-08-08T02:05:49;19.00;;;10.57;;
31526;SDS011;18136;42.236;-73.040;2023-08-08T02:08:16;12.55;;;9.32;;
31526;SDS011;18136;42.236;-73.040;2023-08-08T02:10:43;11.55;;;9.32;;
31526;SDS011;18136;42.236;-73.040;2023-08-08T02:13:09;12.77;;;9.80;;
31526;SDS011;18136;42.236;-73.040;2023-08-08T02:15:35;16.42;;;9.82;;
31526;SDS011;18136;42.236;-73.040;2023-08-08T02:18:01;12.60;;;9.43;;
31526;SDS011;18136;42.236;-73.040;2023-08-08T02:20:29;11.82;;;8.75;;
31526;SDS011;18136;42.236;-73.040;2023-08-08T02:22:55;13.90;;;9.25;;
31526;SDS011;18136;42.236;-73.040;2023-08-08T02:25:21;11.80;;;9.38;;
31526;SDS011;18136;42.236;-73.040;2023-08-08T02:27:49;11.52;;;9.30;;
31526;SDS011;18136;42.236;-73.040;2023-08-08T02:30:15;11.35;;;9.25;;
31526;SDS011;18136;42.236;-73.040;2023-08-08T02:32:42;14.07;;;9.23;;
31526;SDS011;18136;42.236;-73.040;2023-08-08T02:35:08;12.88;;;8.82;;
31526;SDS011;18136;42.236;-73.040;2023-08-08T02:37:35;12.52;;;9.02;;
31526;SDS011;18136;42.236;-73.040;2023-08-08T02:40:01;10.93;;;8.88;;
31526;SDS011;18136;42.236;-73.040;2023-08-08T02:42:28;12.75;;;9.35;;
31526;SDS011;18136;42.236;-73.040;2023-08-08T02:44:54;14.15;;;9.35;;
31526;SDS011;18136;42.236;-73.040;2023-08-08T02:47:20;11.40;;;8.98;;
31526;SDS011;18136;42.236;-73.040;2023-08-08T02:49:46;14.85;;;9.10;;
31526;SDS011;18136;42.236;-73.040;2023-08-08T02:52:12;16.58;;;10.23;;
31526;SDS011;18136;42.236;-73.040;2023-08-08T02:54:38;12.45;;;9.27;;
31526;SDS011;18136;42.236;-73.040;2023-08-08T02:57:05;15.25;;;9.70;;
31526;SDS011;18136;42.236;-73.040;2023-08-08T02:59:31;17.27;;;10.23;;
31526;SDS011;18136;42.236;-73.040;2023-08-08T03:01:57;15.88;;;9.48;;
31526;SDS011;18136;42.236;-73.040;2023-08-08T03:04:23;14.63;;;9.20;;
31526;SDS011;18136;42.236;-73.040;2023-08-08T03:06:49;15.20;;;10.73;;
31526;SDS011;18136;42.236;-73.040;2023-08-08T03:09:17;15.32;;;9.70;;
31526;SDS011;18136;42.236;-73.040;2023-08-08T03:11:43;14.73;;;10.15;;
31526;SDS011;18136;42.236;-73.040;2023-08-08T03:17:07;14.38;;;10.15;;
31526;SDS011;18136;42.236;-73.040;2023-08-08T03:19:34;13.23;;;9.48;;
31526;SDS011;18136;42.236;-73.040;2023-08-08T03:22:00;14.50;;;10.43;;
31526;SDS011;18136;42.236;-73.040;2023-08-08T03:24:26;17.88;;;11.43;;
31526;SDS011;18136;42.236;-73.040;2023-08-08T03:26:52;15.57;;;10.05;;
31526;SDS011;18136;42.236;-73.040;2023-08-08T03:29:18;14.43;;;9.73;;
31526;SDS011;18136;42.236;-73.040;2023-08-08T03:31:44;11.15;;;9.13;;
31526;SDS011;18136;42.236;-73.040;2023-08-08T03:34:10;16.88;;;10.18;;
31526;SDS011;18136;42.236;-73.040;2023-08-08T03:36:36;15.20;;;10.40;;
31526;SDS011;18136;42.236;-73.040;2023-08-08T03:39:02;13.55;;;9.75;;
31526;SDS011;18136;42.236;-73.040;2023-08-08T03:41:29;16.48;;;9.90;;
31526;SDS011;18136;42.236;-73.040;2023-08-08T03:43:55;12.65;;;9.43;;
31526;SDS011;18136;42.236;-73.040;2023-08-08T03:46:22;12.43;;;10.20;;
31526;SDS011;18136;42.236;-73.040;2023-08-08T03:48:48;16.95;;;10.48;;
31526;SDS011;18136;42.236;-73.040;2023-08-08T03:51:14;15.20;;;10.50;;
31526;SDS011;18136;42.236;-73.040;2023-08-08T03:53:40;13.90;;;10.32;;
31526;SDS011;18136;42.236;-73.040;2023-08-08T03:56:07;18.88;;;9.27;;
31526;SDS011;18136;42.236;-73.040;2023-08-08T03:58:33;15.48;;;10.75;;
31526;SDS011;18136;42.236;-73.040;2023-08-08T04:01:00;15.55;;;10.27;;
31526;SDS011;18136;42.236;-73.040;2023-08-08T04:03:26;15.20;;;10.35;;
31526;SDS011;18136;42.236;-73.040;2023-08-08T04:05:52;16.58;;;10.60;;
31526;SDS011;18136;42.236;-73.040;2023-08-08T04:08:18;14.50;;;10.05;;
31526;SDS011;18136;42.236;-73.040;2023-08-08T04:10:46;13.02;;;9.90;;
31526;SDS011;18136;42.236;-73.040;2023-08-08T04:13:12;14.55;;;9.93;;
31526;SDS011;18136;42.236;-73.040;2023-08-08T04:15:40;17.63;;;9.68;;
31526;SDS011;18136;42.236;-73.040;2023-08-08T04:18:06;16.50;;;9.05;;
31526;SDS011;18136;42.236;-73.040;2023-08-08T04:20:33;18.73;;;9.55;;
31526;SDS011;18136;42.236;-73.040;2023-08-08T04:22:59;12.18;;;8.57;;
31526;SDS011;18136;42.236;-73.040;2023-08-08T04:25:25;12.55;;;8.52;;
31526;SDS011;18136;42.236;-73.040;2023-08-08T04:27:52;12.80;;;8.77;;
31526;SDS011;18136;42.236;-73.040;2023-08-08T04:30:18;13.70;;;8.20;;
31526;SDS011;18136;42.236;-73.040;2023-08-08T04:32:45;16.58;;;8.93;;
31526;SDS011;18136;42.236;-73.040;2023-08-08T04:35:11;15.40;;;9.50;;
31526;SDS011;18136;42.236;-73.040;2023-08-08T04:37:37;15.60;;;9.60;;
31526;SDS011;18136;42.236;-73.040;2023-08-08T04:40:03;15.27;;;8.82;;
31526;SDS011;18136;42.236;-73.040;2023-08-08T04:42:30;13.55;;;8.55;;
31526;SDS011;18136;42.236;-73.040;2023-08-08T04:44:57;20.65;;;8.23;;
31526;SDS011;18136;42.236;-73.040;2023-08-08T04:47:23;12.82;;;8.93;;
31526;SDS011;18136;42.236;-73.040;2023-08-08T04:49:55;13.45;;;8.35;;
31526;SDS011;18136;42.236;-73.040;2023-08-08T04:52:21;15.52;;;8.68;;
31526;SDS011;18136;42.236;-73.040;2023-08-08T04:54:47;13.40;;;8.18;;
31526;SDS011;18136;42.236;-73.040;2023-08-08T04:57:13;15.10;;;8.27;;
31526;SDS011;18136;42.236;-73.040;2023-08-08T04:59:39;10.77;;;7.63;;
31526;SDS011;18136;42.236;-73.040;2023-08-08T05:02:06;9.75;;;7.15;;
31526;SDS011;18136;42.236;-73.040;2023-08-08T05:04:32;12.23;;;7.70;;
31526;SDS011;18136;42.236;-73.040;2023-08-08T05:06:58;14.23;;;7.47;;
31526;SDS011;18136;42.236;-73.040;2023-08-08T05:09:24;15.23;;;6.93;;
31526;SDS011;18136;42.236;-73.040;2023-08-08T05:11:52;15.68;;;7.38;;
31526;SDS011;18136;42.236;-73.040;2023-08-08T05:14:18;13.95;;;7.03;;
31526;SDS011;18136;42.236;-73.040;2023-08-08T05:16:45;12.20;;;7.07;;
31526;SDS011;18136;42.236;-73.040;2023-08-08T05:19:11;10.93;;;6.65;;
31526;SDS011;18136;42.236;-73.040;2023-08-08T05:21:37;14.77;;;7.50;;
31526;SDS011;18136;42.236;-73.040;2023-08-08T05:24:03;11.43;;;7.18;;
31526;SDS011;18136;42.236;-73.040;2023-08-08T05:26:30;9.82;;;6.25;;
31526;SDS011;18136;42.236;-73.040;2023-08-08T05:28:56;11.07;;;6.20;;
31526;SDS011;18136;42.236;-73.040;2023-08-08T05:31:22;11.55;;;6.22;;
31526;SDS011;18136;42.236;-73.040;2023-08-08T05:33:48;9.10;;;5.93;;
31526;SDS011;18136;42.236;-73.040;2023-08-08T05:36:15;13.13;;;6.43;;
31526;SDS011;18136;42.236;-73.040;2023-08-08T05:38:41;10.25;;;5.63;;
31526;SDS011;18136;42.236;-73.040;2023-08-08T05:41:07;10.55;;;6.45;;
31526;SDS011;18136;42.236;-73.040;2023-08-08T05:43:33;11.00;;;6.47;;
31526;SDS011;18136;42.236;-73.040;2023-08-08T05:46:00;9.85;;;6.55;;
31526;SDS011;18136;42.236;-73.040;2023-08-08T05:48:28;9.30;;;6.03;;
31526;SDS011;18136;42.236;-73.040;2023-08-08T05:50:54;11.77;;;6.22;;
31526;SDS011;18136;42.236;-73.040;2023-08-08T05:53:23;9.05;;;5.53;;
31526;SDS011;18136;42.236;-73.040;2023-08-08T05:55:50;10.07;;;5.65;;
31526;SDS011;18136;42.236;-73.040;2023-08-08T05:58:16;13.02;;;6.57;;
31526;SDS011;18136;42.236;-73.040;2023-08-08T06:00:42;13.82;;;6.53;;
31526;SDS011;18136;42.236;-73.040;2023-08-08T06:03:08;13.05;;;5.53;;
31526;SDS011;18136;42.236;-73.040;2023-08-08T06:05:34;8.73;;;5.28;;
31526;SDS011;18136;42.236;-73.040;2023-08-08T06:08:00;9.35;;;5.45;;
31526;SDS011;18136;42.236;-73.040;2023-08-08T06:10:26;10.60;;;5.25;;
31526;SDS011;18136;42.236;-73.040;2023-08-08T06:12:52;10.43;;;5.47;;
31526;SDS011;18136;42.236;-73.040;2023-08-08T06:15:18;10.68;;;5.30;;
31526;SDS011;18136;42.236;-73.040;2023-08-08T06:17:44;12.27;;;6.18;;
31526;SDS011;18136;42.236;-73.040;2023-08-08T06:20:10;11.02;;;5.97;;
31526;SDS011;18136;42.236;-73.040;2023-08-08T06:22:37;12.73;;;6.20;;
31526;SDS011;18136;42.236;-73.040;2023-08-08T06:25:04;10.45;;;5.50;;
31526;SDS011;18136;42.236;-73.040;2023-08-08T06:27:30;10.52;;;5.47;;
31526;SDS011;18136;42.236;-73.040;2023-08-08T06:29:56;13.10;;;5.50;;
31526;SDS011;18136;42.236;-73.040;2023-08-08T06:32:23;12.23;;;5.38;;
31526;SDS011;18136;42.236;-73.040;2023-08-08T06:34:49;7.90;;;5.75;;
31526;SDS011;18136;42.236;-73.040;2023-08-08T06:37:15;13.35;;;6.40;;
31526;SDS011;18136;42.236;-73.040;2023-08-08T06:39:42;9.50;;;5.88;;
31526;SDS011;18136;42.236;-73.040;2023-08-08T06:42:08;10.75;;;6.03;;
31526;SDS011;18136;42.236;-73.040;2023-08-08T06:44:40;12.48;;;6.20;;
31526;SDS011;18136;42.236;-73.040;2023-08-08T06:47:08;10.27;;;5.80;;
31526;SDS011;18136;42.236;-73.040;2023-08-08T06:49:34;14.10;;;6.13;;
31526;SDS011;18136;42.236;-73.040;2023-08-08T06:52:00;15.23;;;5.65;;
31526;SDS011;18136;42.236;-73.040;2023-08-08T06:54:26;14.57;;;6.50;;
31526;SDS011;18136;42.236;-73.040;2023-08-08T06:56:53;11.18;;;5.47;;
31526;SDS011;18136;42.236;-73.040;2023-08-08T06:59:22;13.38;;;5.82;;
31526;SDS011;18136;42.236;-73.040;2023-08-08T07:01:49;8.13;;;6.10;;
31526;SDS011;18136;42.236;-73.040;2023-08-08T07:04:16;12.98;;;5.78;;
31526;SDS011;18136;42.236;-73.040;2023-08-08T07:06:43;10.27;;;4.82;;
31526;SDS011;18136;42.236;-73.040;2023-08-08T07:09:10;7.88;;;4.90;;
31526;SDS011;18136;42.236;-73.040;2023-08-08T07:11:36;6.65;;;4.20;;
31526;SDS011;18136;42.236;-73.040;2023-08-08T07:14:03;8.27;;;4.57;;
31526;SDS011;18136;42.236;-73.040;2023-08-08T07:16:29;11.20;;;4.88;;
31526;SDS011;18136;42.236;-73.040;2023-08-08T07:18:55;10.10;;;4.05;;
31526;SDS011;18136;42.236;-73.040;2023-08-08T07:21:21;10.73;;;4.43;;
31526;SDS011;18136;42.236;-73.040;2023-08-08T07:23:47;9.02;;;4.63;;
31526;SDS011;18136;42.236;-73.040;2023-08-08T07:26:13;11.93;;;4.60;;
31526;SDS011;18136;42.236;-73.040;2023-08-08T07:28:40;10.68;;;4.70;;
31526;SDS011;18136;42.236;-73.040;2023-08-08T07:31:06;6.75;;;4.10;;
31526;SDS011;18136;42.236;-73.040;2023-08-08T07:33:32;7.45;;;3.78;;
31526;SDS011;18136;42.236;-73.040;2023-08-08T07:35:58;11.15;;;4.47;;
31526;SDS011;18136;42.236;-73.040;2023-08-08T07:38:24;12.57;;;4.38;;
31526;SDS011;18136;42.236;-73.040;2023-08-08T07:40:50;9.45;;;4.15;;
31526;SDS011;18136;42.236;-73.040;2023-08-08T07:43:16;9.38;;;4.72;;
31526;SDS011;18136;42.236;-73.040;2023-08-08T07:45:42;7.95;;;3.33;;
31526;SDS011;18136;42.236;-73.040;2023-08-08T07:48:08;6.90;;;3.22;;
31526;SDS011;18136;42.236;-73.040;2023-08-08T07:50:35;7.85;;;3.53;;
31526;SDS011;18136;42.236;-73.040;2023-08-08T07:53:01;6.00;;;3.40;;
31526;SDS011;18136;42.236;-73.040;2023-08-08T07:55:27;7.57;;;3.08;;
31526;SDS011;18136;42.236;-73.040;2023-08-08T07:57:53;8.70;;;3.42;;
31526;SDS011;18136;42.236;-73.040;2023-08-08T08:00:20;9.68;;;3.33;;
31526;SDS011;18136;42.236;-73.040;2023-08-08T08:02:48;7.50;;;2.65;;
31526;SDS011;18136;42.236;-73.040;2023-08-08T08:05:14;4.97;;;2.70;;
31526;SDS011;18136;42.236;-73.040;2023-08-08T08:07:40;16.33;;;3.70;;
31526;SDS011;18136;42.236;-73.040;2023-08-08T08:10:08;8.90;;;2.75;;
31526;SDS011;18136;42.236;-73.040;2023-08-08T08:12:38;7.35;;;3.50;;
31526;SDS011;18136;42.236;-73.040;2023-08-08T08:15:06;7.22;;;2.92;;
31526;SDS011;18136;42.236;-73.040;2023-08-08T08:17:33;8.05;;;3.17;;
31526;SDS011;18136;42.236;-73.040;2023-08-08T08:19:59;5.38;;;2.80;;
31526;SDS011;18136;42.236;-73.040;2023-08-08T08:22:30;8.50;;;3.38;;
31526;SDS011;18136;42.236;-73.040;2023-08-08T08:24:57;6.18;;;2.75;;
31526;SDS011;18136;42.236;-73.040;2023-08-08T08:27:23;8.25;;;3.30;;
31526;SDS011;18136;42.236;-73.040;2023-08-08T08:29:49;7.50;;;3.10;;
31526;SDS011;18136;42.236;-73.040;2023-08-08T08:32:16;8.05;;;3.50;;
31526;SDS011;18136;42.236;-73.040;2023-08-08T08:34:42;9.05;;;3.30;;
31526;SDS011;18136;42.236;-73.040;2023-08-08T08:37:09;7.28;;;3.30;;
31526;SDS011;18136;42.236;-73.040;2023-08-08T08:39:35;7.15;;;3.20;;
31526;SDS011;18136;42.236;-73.040;2023-08-08T08:42:01;9.38;;;3.67;;
31526;SDS011;18136;42.236;-73.040;2023-08-08T08:44:30;8.23;;;3.65;;
31526;SDS011;18136;42.236;-73.040;2023-08-08T08:46:58;8.05;;;3.55;;
31526;SDS011;18136;42.236;-73.040;2023-08-08T08:49:27;5.18;;;3.15;;
31526;SDS011;18136;42.236;-73.040;2023-08-08T08:51:56;5.72;;;3.58;;
31526;SDS011;18136;42.236;-73.040;2023-08-08T08:54:31;9.60;;;4.22;;
31526;SDS011;18136;42.236;-73.040;2023-08-08T08:56:58;14.00;;;4.93;;
31526;SDS011;18136;42.236;-73.040;2023-08-08T08:59:24;6.45;;;3.75;;
31526;SDS011;18136;42.236;-73.040;2023-08-08T09:01:51;7.88;;;3.80;;
31526;SDS011;18136;42.236;-73.040;2023-08-08T09:04:18;12.10;;;4.88;;
31526;SDS011;18136;42.236;-73.040;2023-08-08T09:06:46;10.00;;;3.95;;
31526;SDS011;18136;42.236;-73.040;2023-08-08T09:09:13;6.00;;;4.18;;
31526;SDS011;18136;42.236;-73.040;2023-08-08T09:11:43;6.00;;;4.25;;
31526;SDS011;18136;42.236;-73.040;2023-08-08T09:14:17;9.02;;;4.57;;
31526;SDS011;18136;42.236;-73.040;2023-08-08T09:16:49;8.70;;;3.92;;
31526;SDS011;18136;42.236;-73.040;2023-08-08T09:19:20;6.47;;;4.00;;
31526;SDS011;18136;42.236;-73.040;2023-08-08T09:21:47;8.48;;;3.63;;
31526;SDS011;18136;42.236;-73.040;2023-08-08T09:24:14;9.93;;;4.93;;
31526;SDS011;18136;42.236;-73.040;2023-08-08T09:26:41;10.63;;;4.13;;
31526;SDS011;18136;42.236;-73.040;2023-08-08T09:29:10;7.40;;;3.95;;
31526;SDS011;18136;42.236;-73.040;2023-08-08T09:31:38;9.18;;;3.67;;
31526;SDS011;18136;42.236;-73.040;2023-08-08T09:34:05;10.50;;;3.78;;
31526;SDS011;18136;42.236;-73.040;2023-08-08T09:36:31;8.05;;;4.20;;
31526;SDS011;18136;42.236;-73.040;2023-08-08T09:38:58;7.25;;;4.50;;
31526;SDS011;18136;42.236;-73.040;2023-08-08T09:41:24;7.72;;;4.03;;
31526;SDS011;18136;42.236;-73.040;2023-08-08T09:43:51;10.77;;;4.00;;
31526;SDS011;18136;42.236;-73.040;2023-08-08T09:46:19;10.13;;;3.53;;
31526;SDS011;18136;42.236;-73.040;2023-08-08T09:48:46;9.90;;;4.28;;
31526;SDS011;18136;42.236;-73.040;2023-08-08T09:51:13;7.50;;;4.00;;
31526;SDS011;18136;42.236;-73.040;2023-08-08T09:53:39;6.18;;;3.22;;
31526;SDS011;18136;42.236;-73.040;2023-08-08T09:56:07;5.90;;;3.30;;
31526;SDS011;18136;42.236;-73.040;2023-08-08T09:58:33;9.65;;;4.05;;
31526;SDS011;18136;42.236;-73.040;2023-08-08T10:01:00;8.20;;;3.70;;
31526;SDS011;18136;42.236;-73.040;2023-08-08T10:03:26;10.57;;;4.10;;
31526;SDS011;18136;42.236;-73.040;2023-08-08T10:05:53;5.60;;;3.13;;
31526;SDS011;18136;42.236;-73.040;2023-08-08T10:08:19;4.60;;;3.58;;
31526;SDS011;18136;42.236;-73.040;2023-08-08T10:10:47;6.18;;;3.70;;
31526;SDS011;18136;42.236;-73.040;2023-08-08T10:13:24;6.78;;;4.28;;
31526;SDS011;18136;42.236;-73.040;2023-08-08T10:16:21;4.60;;;3.45;;
31526;SDS011;18136;42.236;-73.040;2023-08-08T10:18:54;9.40;;;3.60;;
31526;SDS011;18136;42.236;-73.040;2023-08-08T10:21:23;9.43;;;3.78;;
31526;SDS011;18136;42.236;-73.040;2023-08-08T10:24:00;9.95;;;3.90;;
31526;SDS011;18136;42.236;-73.040;2023-08-08T10:26:52;8.37;;;3.87;;
31526;SDS011;18136;42.236;-73.040;2023-08-08T10:29:19;12.30;;;4.15;;
31526;SDS011;18136;42.236;-73.040;2023-08-08T10:32:22;8.02;;;3.78;;
31526;SDS011;18136;42.236;-73.040;2023-08-08T10:34:49;8.40;;;4.35;;
31526;SDS011;18136;42.236;-73.040;2023-08-08T10:37:16;8.15;;;3.58;;
31526;SDS011;18136;42.236;-73.040;2023-08-08T10:39:55;6.65;;;3.45;;
31526;SDS011;18136;42.236;-73.040;2023-08-08T10:42:25;8.95;;;3.80;;
31526;SDS011;18136;42.236;-73.040;2023-08-08T10:45:00;7.28;;;3.83;;
31526;SDS011;18136;42.236;-73.040;2023-08-08T10:47:32;10.10;;;4.40;;
31526;SDS011;18136;42.236;-73.040;2023-08-08T10:50:42;9.75;;;4.57;;
31526;SDS011;18136;42.236;-73.040;2023-08-08T10:55:25;9.27;;;4.22;;
31526;SDS011;18136;42.236;-73.040;2023-08-08T10:57:57;8.75;;;4.18;;
31526;SDS011;18136;42.236;-73.040;2023-08-08T11:00:35;7.38;;;4.53;;
31526;SDS011;18136;42.236;-73.040;2023-08-08T11:03:05;8.23;;;4.22;;
31526;SDS011;18136;42.236;-73.040;2023-08-08T11:05:33;15.35;;;5.70;;
31526;SDS011;18136;42.236;-73.040;2023-08-08T11:08:01;10.95;;;4.70;;
31526;SDS011;18136;42.236;-73.040;2023-08-08T11:10:29;7.93;;;4.60;;
31526;SDS011;18136;42.236;-73.040;2023-08-08T11:13:03;8.63;;;5.00;;
31526;SDS011;18136;42.236;-73.040;2023-08-08T11:15:34;11.20;;;5.93;;
31526;SDS011;18136;42.236;-73.040;2023-08-08T11:18:01;9.07;;;5.10;;
31526;SDS011;18136;42.236;-73.040;2023-08-08T11:20:32;8.60;;;5.32;;
31526;SDS011;18136;42.236;-73.040;2023-08-08T11:23:00;11.68;;;5.20;;
31526;SDS011;18136;42.236;-73.040;2023-08-08T11:25:27;9.55;;;6.15;;
31526;SDS011;18136;42.236;-73.040;2023-08-08T11:27:55;10.35;;;5.55;;
31526;SDS011;18136;42.236;-73.040;2023-08-08T11:30:23;11.30;;;5.75;;
31526;SDS011;18136;42.236;-73.040;2023-08-08T11:32:53;11.27;;;6.07;;
31526;SDS011;18136;42.236;-73.040;2023-08-08T11:35:23;10.50;;;6.05;;
31526;SDS011;18136;42.236;-73.040;2023-08-08T11:37:50;8.85;;;5.88;;
31526;SDS011;18136;42.236;-73.040;2023-08-08T11:40:18;11.38;;;6.45;;
31526;SDS011;18136;42.236;-73.040;2023-08-08T11:42:46;12.10;;;6.28;;
31526;SDS011;18136;42.236;-73.040;2023-08-08T11:45:15;11.02;;;5.68;;
31526;SDS011;18136;42.236;-73.040;2023-08-08T11:47:42;9.35;;;5.53;;
31526;SDS011;18136;42.236;-73.040;2023-08-08T11:50:09;9.55;;;6.22;;
31526;SDS011;18136;42.236;-73.040;2023-08-08T11:52:39;12.93;;;6.97;;
31526;SDS011;18136;42.236;-73.040;2023-08-08T11:55:07;11.20;;;5.38;;
31526;SDS011;18136;42.236;-73.040;2023-08-08T11:57:37;10.65;;;6.30;;
31526;SDS011;18136;42.236;-73.040;2023-08-08T12:00:10;8.18;;;5.53;;
31526;SDS011;18136;42.236;-73.040;2023-08-08T12:02:42;8.40;;;5.80;;
31526;SDS011;18136;42.236;-73.040;2023-08-08T12:05:09;8.00;;;4.97;;
31526;SDS011;18136;42.236;-73.040;2023-08-08T12:07:37;6.22;;;4.30;;
31526;SDS011;18136;42.236;-73.040;2023-08-08T12:10:13;8.90;;;4.90;;
31526;SDS011;18136;42.236;-73.040;2023-08-08T12:12:43;7.88;;;4.80;;
31526;SDS011;18136;42.236;-73.040;2023-08-08T12:15:10;5.32;;;4.22;;
31526;SDS011;18136;42.236;-73.040;2023-08-08T12:17:36;8.13;;;4.72;;
31526;SDS011;18136;42.236;-73.040;2023-08-08T12:20:03;11.13;;;4.10;;
31526;SDS011;18136;42.236;-73.040;2023-08-08T12:22:31;7.30;;;4.47;;
31526;SDS011;18136;42.236;-73.040;2023-08-08T12:24:57;5.43;;;3.67;;
31526;SDS011;18136;42.236;-73.040;2023-08-08T12:27:23;4.93;;;4.03;;
31526;SDS011;18136;42.236;-73.040;2023-08-08T12:29:50;4.70;;;3.67;;
31526;SDS011;18136;42.236;-73.040;2023-08-08T12:32:19;7.35;;;3.90;;
31526;SDS011;18136;42.236;-73.040;2023-08-08T12:34:45;6.97;;;3.97;;
31526;SDS011;18136;42.236;-73.040;2023-08-08T12:37:11;7.07;;;3.78;;
31526;SDS011;18136;42.236;-73.040;2023-08-08T12:39:37;7.63;;;4.72;;
31526;SDS011;18136;42.236;-73.040;2023-08-08T12:42:04;8.75;;;3.70;;
31526;SDS011;18136;42.236;-73.040;2023-08-08T12:44:30;6.13;;;3.75;;
31526;SDS011;18136;42.236;-73.040;2023-08-08T12:46:56;4.30;;;3.15;;
31526;SDS011;18136;42.236;-73.040;2023-08-08T12:49:22;3.95;;;3.33;;
31526;SDS011;18136;42.236;-73.040;2023-08-08T12:51:49;5.68;;;3.03;;
31526;SDS011;18136;42.236;-73.040;2023-08-08T12:54:16;4.65;;;2.80;;
31526;SDS011;18136;42.236;-73.040;2023-08-08T12:56:42;3.67;;;2.42;;
31526;SDS011;18136;42.236;-73.040;2023-08-08T12:59:09;3.53;;;2.47;;
31526;SDS011;18136;42.236;-73.040;2023-08-08T13:01:35;5.65;;;3.00;;
31526;SDS011;18136;42.236;-73.040;2023-08-08T13:04:02;3.70;;;2.35;;
31526;SDS011;18136;42.236;-73.040;2023-08-08T13:06:29;3.22;;;2.80;;
31526;SDS011;18136;42.236;-73.040;2023-08-08T13:08:55;3.90;;;2.30;;
31526;SDS011;18136;42.236;-73.040;2023-08-08T13:11:21;4.80;;;2.65;;
31526;SDS011;18136;42.236;-73.040;2023-08-08T13:13:48;4.68;;;2.60;;
31526;SDS011;18136;42.236;-73.040;2023-08-08T13:16:14;5.32;;;2.60;;
31526;SDS011;18136;42.236;-73.040;2023-08-08T13:18:40;3.05;;;2.38;;
31526;SDS011;18136;42.236;-73.040;2023-08-08T13:21:06;2.55;;;2.30;;
31526;SDS011;18136;42.236;-73.040;2023-08-08T13:23:32;4.13;;;2.03;;
31526;SDS011;18136;42.236;-73.040;2023-08-08T13:25:58;3.72;;;2.40;;
31526;SDS011;18136;42.236;-73.040;2023-08-08T13:28:24;2.53;;;2.33;;
31526;SDS011;18136;42.236;-73.040;2023-08-08T13:30:50;3.63;;;2.47;;
31526;SDS011;18136;42.236;-73.040;2023-08-08T13:33:16;2.72;;;1.98;;
31526;SDS011;18136;42.236;-73.040;2023-08-08T13:35:43;3.67;;;2.20;;
31526;SDS011;18136;42.236;-73.040;2023-08-08T13:38:09;2.35;;;2.00;;
31526;SDS011;18136;42.236;-73.040;2023-08-08T13:40:40;2.90;;;2.30;;
31526;SDS011;18136;42.236;-73.040;2023-08-08T13:43:06;2.50;;;2.30;;
31526;SDS011;18136;42.236;-73.040;2023-08-08T13:45:33;4.40;;;2.10;;
31526;SDS011;18136;42.236;-73.040;2023-08-08T13:48:00;7.75;;;2.58;;
31526;SDS011;18136;42.236;-73.040;2023-08-08T13:50:26;5.25;;;2.33;;
31526;SDS011;18136;42.236;-73.040;2023-08-08T13:52:53;2.22;;;2.03;;
31526;SDS011;18136;42.236;-73.040;2023-08-08T13:55:20;3.42;;;1.90;;
31526;SDS011;18136;42.236;-73.040;2023-08-08T13:57:46;2.33;;;2.08;;
31526;SDS011;18136;42.236;-73.040;2023-08-08T14:00:12;5.32;;;2.38;;
31526;SDS011;18136;42.236;-73.040;2023-08-08T14:02:39;3.15;;;2.15;;
31526;SDS011;18136;42.236;-73.040;2023-08-08T14:05:06;2.83;;;1.83;;
31526;SDS011;18136;42.236;-73.040;2023-08-08T14:07:33;2.13;;;1.88;;
31526;SDS011;18136;42.236;-73.040;2023-08-08T14:10:01;4.55;;;2.00;;
31526;SDS011;18136;42.236;-73.040;2023-08-08T14:12:29;2.58;;;2.38;;
31526;SDS011;18136;42.236;-73.040;2023-08-08T14:14:55;2.63;;;2.08;;
31526;SDS011;18136;42.236;-73.040;2023-08-08T14:17:21;1.98;;;1.88;;
31526;SDS011;18136;42.236;-73.040;2023-08-08T14:19:48;2.72;;;1.95;;